CheckWX is a tool to help pilots better visualize weather data.  It is not intended as a substitute for an official pre-flight weather briefing.

01:35:48 UTC

KLEE TAF
Leesburg International Airport
Leesburg, Florida, USA
KLEE 212321Z 2200/2224 34013G19KT P6SM SKC FM221500 35012G21KT P6SM FEW035 FM221800 01013G22KT P6SM BKN035

Jan-22@
00:00 UTC

Jan-22 @ 00:00 UTC

Jan-22@
15:00 UTC

Jan-22 @ 15:00 UTC

KLEE 212321Z 2200/2224 34013G19KT P6SM SKC
Wind
  • 340° at 13 KTS
  • {Gusting to 19 KTS
Cloud Levels
  • Clear skies

Jan-22@
15:00 UTC

Jan-22 @ 15:00 UTC

Jan-22@
18:00 UTC

Jan-22 @ 18:00 UTC

FM221500 35012G21KT P6SM FEW035

From

From Standard forecast or significant change

Wind
  • 350° at 12 KTS
  • {Gusting to 21 KTS
Cloud Levels
  • Few at 3,500' AGL

Jan-22@
18:00 UTC

Jan-22 @ 18:00 UTC

Jan-23@
00:00 UTC

Jan-23 @ 00:00 UTC

FM221800 01013G22KT P6SM BKN035

From

From Standard forecast or significant change

Wind
  • 010° at 13 KTS
  • {Gusting to 22 KTS
Cloud Levels
  • Broken at 3,500' AGL